Terminal Aerodrome Forecast
Issued by NWS

Home | Current Version | Previous Version | Text Only | Print | Product List | Glossary Off
Versions: 1 2 3 4 5 6 7 8 9 10 11 12 13 14 15 16 17 18

000
FTUS42 KMHX 241121
TAFISO
TAF
KISO 241121Z 2412/2512 36004KT P6SM BKN040
     FM241500 06005KT P6SM SCT035 BKN080
     FM250200 05006KT P6SM OVC050
     FM250600 03005KT P6SM OVC010
      AMD LTD TO CLD VIS AND WIND=

USA.gov is the U.S. government's official web portal to all federal, state and local government web resources and services.